Time;durP1;ratioP1;P1;durP2;ratioP2;P2;SDS_P1;SDS_P2;PMS_P1;PMS_P2;Temp;Humidity;BMP_temperature;BMP_pressure;BME280_temperature;BME280_humidity;BME280_pressure;Samples;Min_cycle;Max_cycle;Signal;HPM_P1;HPM_P2
2023/05/01 00:01:09;;;;;;;;;;;;;;;;;;5044080;28;5087;-64
2023/05/01 00:03:34;;;;;;;;;;;;;;;;;;5047421;28;1799;-64
2023/05/01 00:06:03;;;;;;;;;;;;;;;;;;5047934;28;4575;-64
2023/05/01 00:08:29;;;;;;;;;;;;;;;;;;5045757;28;6482;-64
2023/05/01 00:10:54;;;;;;;;;;;;;;;;;;5038445;28;5100;-64
2023/05/01 00:13:21;;;;;;;;;;;;;;;;;;5047627;28;4564;-66
2023/05/01 00:15:47;;;;;;;;;;;;;;;;;;5047660;28;5047;-64
2023/05/01 00:18:12;;;;;;;;;;;;;;;;;;5048401;28;1144;-64
2023/05/01 00:20:38;;;;;;;;;;;;;;;;;;5049470;28;4509;-63
2023/05/01 00:23:03;;;;;;;;;;;;;;;;;;5051783;28;4464;-64
2023/05/01 00:25:28;;;;;;;;;;;;;;;;;;5051235;28;5013;-64
2023/05/01 00:27:53;;;;;;;;;;;;;;;;;;5050795;28;4692;-64
2023/05/01 00:30:19;;;;;;;;;;;;;;;;;;5052118;28;1160;-64
2023/05/01 00:32:44;;;;;;;;;;;;;;;;;;5051109;28;4606;-64
2023/05/01 00:35:09;;;;;;;;;;;;;;;;;;5051006;28;5024;-64
2023/05/01 00:37:35;;;;;;;;;;;;;;;;;;5051270;28;4631;-64
2023/05/01 00:40:00;;;;;;;;;;;;;;;;;;5051258;28;4511;-64
2023/05/01 00:42:25;;;;;;;;;;;;;;;;;;5050705;28;1183;-64
2023/05/01 00:44:51;;;;;;;;;;;;;;;;;;5050140;28;4820;-64
2023/05/01 00:47:16;;;;;;;;;;;;;;;;;;5049595;28;4484;-63
2023/05/01 00:49:41;;;;;;;;;;;;;;;;;;5050726;28;4618;-63
2023/05/01 00:52:08;;;;;;;;;;;;;;;;;;5049781;28;4489;-63
2023/05/01 00:54:34;;;;;;;;;;;;;;;;;;5051725;28;1207;-64
2023/05/01 00:56:59;;;;;;;;;;;;;;;;;;5050612;28;4793;-64
2023/05/01 00:59:24;;;;;;;;;;;;;;;;;;5033057;28;4521;-64
2023/05/01 01:01:50;;;;;;;;;;;;;;;;;;5048509;28;4530;-67
2023/05/01 01:04:16;;;;;;;;;;;;;;;;;;5050708;28;4650;-64
2023/05/01 01:07:01;;;;;;;;;;;;;;;;;;5051135;28;4740;-63
2023/05/01 01:09:39;;;;;;;;;;;;;;;;;;5027747;28;6452;-63
2023/05/01 01:12:21;;;;;;;;;;;;;;;;;;5050311;28;4581;-63
2023/05/01 01:14:54;;;;;;;;;;;;;;;;;;5041645;28;4584;-63
2023/05/01 01:17:34;;;;;;;;;;;;;;;;;;5049491;28;5013;-63
2023/05/01 01:20:14;;;;;;;;;;;;;;;;;;5050962;28;5018;-63
2023/05/01 01:22:40;;;;;;;;;;;;;;;;;;5050040;28;4653;-64
2023/05/01 01:25:24;;;;;;;;;;;;;;;;;;5048573;28;4720;-65
2023/05/01 01:28:08;;;;;;;;;;;;;;;;;;5050458;28;4487;-65
2023/05/01 01:30:39;;;;;;;;;;;;;;;;;;5050716;28;1057;-64
2023/05/01 01:33:23;;;;;;;;;;;;;;;;;;5035908;28;4959;-64
2023/05/01 01:35:56;;;;;;;;;;;;;;;;;;5041856;28;4589;-63
2023/05/01 01:38:23;;;;;;;;;;;;;;;;;;5064241;28;5192;-64
2023/05/01 01:40:48;;;;;;;;;;;;;;;;;;5061561;28;4479;-63
2023/05/01 01:43:14;;;;;;;;;;;;;;;;;;5048803;28;4651;-64
2023/05/01 01:45:42;;;;;;;;;;;;;;;;;;5050063;28;1967;-63
2023/05/01 01:48:08;;;;;;;;;;;;;;;;;;5028713;28;5114;-64
2023/05/01 01:50:33;;;;;;;;;;;;;;;;;;5041175;28;4442;-63
2023/05/01 01:52:59;;;;;;;;;;;;;;;;;;5029499;28;4918;-62
2023/05/01 01:55:26;;;;;;;;;;;;;;;;;;5028971;28;5950;-64
2023/05/01 01:57:51;;;;;;;;;;;;;;;;;;5028545;28;4463;-64
2023/05/01 02:00:17;;;;;;;;;;;;;;;;;;5030512;28;1081;-65
2023/05/01 02:02:42;;;;;;;;;;;;;;;;;;5024295;28;5001;-64
2023/05/01 02:05:07;;;;;;;;;;;;;;;;;;5029714;28;4883;-63
2023/05/01 02:07:33;;;;;;;;;;;;;;;;;;5029319;28;4486;-64
2023/05/01 02:09:59;;;;;;;;;;;;;;;;;;5051652;28;6635;-63
2023/05/01 02:12:25;;;;;;;;;;;;;;;;;;5028872;28;1187;-63
2023/05/01 02:14:51;;;;;;;;;;;;;;;;;;5016034;28;4651;-64
2023/05/01 02:17:16;;;;;;;;;;;;;;;;;;5028193;28;4539;-64
2023/05/01 02:19:42;;;;;;;;;;;;;;;;;;5028210;28;5123;-63
2023/05/01 02:22:07;;;;;;;;;;;;;;;;;;5027872;28;4639;-64
2023/05/01 02:24:33;;;;;;;;;;;;;;;;;;5029483;28;1978;-63
2023/05/01 02:27:10;;;;;;;;;;;;;;;;;;5023260;28;4389;-63
2023/05/01 02:29:35;;;;;;;;;;;;;;;;;;5018165;28;5036;-63
2023/05/01 02:32:01;;;;;;;;;;;;;;;;;;5029422;28;4466;-63
2023/05/01 02:34:26;;;;;;;;;;;;;;;;;;5028545;28;4658;-63
2023/05/01 02:36:52;;;;;;;;;;;;;;;;;;5027787;28;4524;-64
2023/05/01 02:39:17;;;;;;;;;;;;;;;;;;5029766;28;1101;-64
2023/05/01 02:41:42;;;;;;;;;;;;;;;;;;5027965;28;4509;-64
2023/05/01 02:44:08;;;;;;;;;;;;;;;;;;5028833;28;4515;-64
2023/05/01 02:46:34;;;;;;;;;;;;;;;;;;5028985;28;4512;-64
2023/05/01 02:49:00;;;;;;;;;;;;;;;;;;5028251;28;4682;-64
2023/05/01 02:51:26;;;;;;;;;;;;;;;;;;5029285;28;1164;-64
2023/05/01 02:53:51;;;;;;;;;;;;;;;;;;5027529;28;4430;-63
2023/05/01 02:56:17;;;;;;;;;;;;;;;;;;5027123;28;5174;-65
2023/05/01 02:58:43;;;;;;;;;;;;;;;;;;5028476;28;4504;-64
2023/05/01 03:01:10;;;;;;;;;;;;;;;;;;5026004;28;4476;-66
2023/05/01 03:03:36;;;;;;;;;;;;;;;;;;5028888;28;1548;-63
2023/05/01 03:06:02;;;;;;;;;;;;;;;;;;5028815;28;4597;-64
2023/05/01 03:08:27;;;;;;;;;;;;;;;;;;5026674;28;6440;-64
2023/05/01 03:10:52;;;;;;;;;;;;;;;;;;5027917;28;4475;-63
2023/05/01 03:13:17;;;;;;;;;;;;;;;;;;5043090;28;5191;-63
2023/05/01 03:15:43;;;;;;;;;;;;;;;;;;5026351;28;5032;-63
2023/05/01 03:18:08;;;;;;;;;;;;;;;;;;5049023;28;1175;-63
2023/05/01 03:20:33;;;;;;;;;;;;;;;;;;5047949;28;4937;-64
2023/05/01 03:22:59;;;;;;;;;;;;;;;;;;5048468;28;4615;-65
2023/05/01 03:25:24;;;;;;;;;;;;;;;;;;5038548;28;4718;-64
2023/05/01 03:27:49;;;;;;;;;;;;;;;;;;5048283;28;4514;-63
2023/05/01 03:30:14;;;;;;;;;;;;;;;;;;5048492;28;1770;-63
2023/05/01 03:32:40;;;;;;;;;;;;;;;;;;5046104;28;4960;-63
2023/05/01 03:35:06;;;;;;;;;;;;;;;;;;5023984;28;4487;-64
2023/05/01 03:37:32;;;;;;;;;;;;;;;;;;5028401;28;4972;-63
2023/05/01 03:39:58;;;;;;;;;;;;;;;;;;5028336;28;4581;-64
2023/05/01 03:42:23;;;;;;;;;;;;;;;;;;5018618;28;1800;-64
2023/05/01 03:44:48;;;;;;;;;;;;;;;;;;5028377;28;4680;-64
2023/05/01 03:47:14;;;;;;;;;;;;;;;;;;5028322;28;4465;-65
2023/05/01 03:49:42;;;;;;;;;;;;;;;;;;5028062;28;4524;-64
2023/05/01 03:52:07;;;;;;;;;;;;;;;;;;5028345;28;4719;-63
2023/05/01 03:54:33;;;;;;;;;;;;;;;;;;5029433;28;1152;-64
2023/05/01 03:56:59;;;;;;;;;;;;;;;;;;5032416;28;5065;-64
2023/05/01 03:59:24;;;;;;;;;;;;;;;;;;5032121;28;4446;-65
2023/05/01 04:01:49;;;;;;;;;;;;;;;;;;5027988;28;5537;-64
2023/05/01 04:04:15;;;;;;;;;;;;;;;;;;5031490;28;4808;-64
2023/05/01 04:06:40;;;;;;;;;;;;;;;;;;5031653;28;4469;-63
2023/05/01 04:09:07;;;;;;;;;;;;;;;;;;5023983;28;6269;-64
2023/05/01 04:11:32;;;;;;;;;;;;;;;;;;5026318;28;5081;-63
2023/05/01 04:13:57;;;;;;;;;;;;;;;;;;5029900;28;4548;-63
2023/05/01 04:16:22;;;;;;;;;;;;;;;;;;5031934;28;5662;-63
2023/05/01 04:18:48;;;;;;;;;;;;;;;;;;5030268;28;4453;-64
2023/05/01 04:21:14;;;;;;;;;;;;;;;;;;5022428;28;1826;-64
2023/05/01 04:23:39;;;;;;;;;;;;;;;;;;5022651;28;5173;-63
2023/05/01 04:26:05;;;;;;;;;;;;;;;;;;5030242;28;4702;-64
2023/05/01 04:28:30;;;;;;;;;;;;;;;;;;5023813;28;4799;-65
2023/05/01 04:30:56;;;;;;;;;;;;;;;;;;5030724;28;4677;-63
2023/05/01 04:33:22;;;;;;;;;;;;;;;;;;5031894;28;1547;-63
2023/05/01 04:35:47;;;;;;;;;;;;;;;;;;5031253;28;5553;-64
2023/05/01 04:38:12;;;;;;;;;;;;;;;;;;5027517;28;5106;-63
2023/05/01 04:40:38;;;;;;;;;;;;;;;;;;5030352;28;4604;-64
2023/05/01 04:43:03;;;;;;;;;;;;;;;;;;5031124;28;4660;-63
2023/05/01 04:45:28;;;;;;;;;;;;;;;;;;5028166;28;1930;-63
2023/05/01 04:47:53;;;;;;;;;;;;;;;;;;5047253;28;4588;-63
2023/05/01 04:50:19;;;;;;;;;;;;;;;;;;5037199;28;4587;-63
2023/05/01 04:52:44;;;;;;;;;;;;;;;;;;5031301;28;5033;-63
2023/05/01 04:55:10;;;;;;;;;;;;;;;;;;5030550;28;4757;-65
2023/05/01 04:57:35;;;;;;;;;;;;;;;;;;5027685;28;1801;-63
2023/05/01 05:00:02;;;;;;;;;;;;;;;;;;5030597;28;4768;-63
2023/05/01 05:02:27;;;;;;;;;;;;;;;;;;5031443;28;4671;-63
2023/05/01 05:04:56;;;;;;;;;;;;;;;;;;5040222;28;5112;-63
2023/05/01 05:07:21;;;;;;;;;;;;;;;;;;5029061;28;4471;-64
2023/05/01 05:09:47;;;;;;;;;;;;;;;;;;5027187;28;6380;-63
2023/05/01 05:12:13;;;;;;;;;;;;;;;;;;5029378;28;1732;-63
2023/05/01 05:14:39;;;;;;;;;;;;;;;;;;5018730;28;4879;-63
2023/05/01 05:17:05;;;;;;;;;;;;;;;;;;5027979;28;4586;-63
2023/05/01 05:19:30;;;;;;;;;;;;;;;;;;5038686;28;5016;-63
2023/05/01 05:21:55;;;;;;;;;;;;;;;;;;5031377;28;4557;-63
2023/05/01 05:24:21;;;;;;;;;;;;;;;;;;5048377;28;1972;-63
2023/05/01 05:26:46;;;;;;;;;;;;;;;;;;5027976;28;4598;-63
2023/05/01 05:29:12;;;;;;;;;;;;;;;;;;5026418;28;4481;-64
2023/05/01 05:31:37;;;;;;;;;;;;;;;;;;5025091;28;4737;-63
2023/05/01 05:34:02;;;;;;;;;;;;;;;;;;5021724;28;4766;-63
2023/05/01 05:36:28;;;;;;;;;;;;;;;;;;5027773;28;1903;-64
2023/05/01 05:38:54;;;;;;;;;;;;;;;;;;5030092;28;4452;-63
2023/05/01 05:41:19;;;;;;;;;;;;;;;;;;5027903;28;4672;-63
2023/05/01 05:43:44;;;;;;;;;;;;;;;;;;5030039;28;4676;-63
2023/05/01 05:46:10;;;;;;;;;;;;;;;;;;5025490;28;4576;-63
2023/05/01 05:48:35;;;;;;;;;;;;;;;;;;5030265;28;1792;-62
2023/05/01 05:51:01;;;;;;;;;;;;;;;;;;5028718;28;4429;-63
2023/05/01 05:53:26;;;;;;;;;;;;;;;;;;5024397;28;4553;-63
2023/05/01 05:55:51;;;;;;;;;;;;;;;;;;5029380;28;4804;-62
2023/05/01 05:58:18;;;;;;;;;;;;;;;;;;5021219;28;4754;-63
2023/05/01 06:00:47;;;;;;;;;;;;;;;;;;5047226;28;4846;-65
2023/05/01 06:03:12;;;;;;;;;;;;;;;;;;5025021;28;1920;-63
2023/05/01 06:05:37;;;;;;;;;;;;;;;;;;5026851;28;4504;-64
2023/05/01 06:08:03;;;;;;;;;;;;;;;;;;5035245;28;4735;-63
2023/05/01 06:10:28;;;;;;;;;;;;;;;;;;5037820;28;6474;-63
2023/05/01 06:12:53;;;;;;;;;;;;;;;;;;5023034;28;4518;-63
2023/05/01 06:15:19;;;;;;;;;;;;;;;;;;5027198;28;1811;-63
2023/05/01 06:17:44;;;;;;;;;;;;;;;;;;5028647;28;4921;-63
2023/05/01 06:20:10;;;;;;;;;;;;;;;;;;5026377;28;5609;-63
2023/05/01 06:22:35;;;;;;;;;;;;;;;;;;5021802;28;4446;-63
2023/05/01 06:25:00;;;;;;;;;;;;;;;;;;5024774;28;4695;-63
2023/05/01 06:27:26;;;;;;;;;;;;;;;;;;5027473;28;1727;-64
2023/05/01 06:29:51;;;;;;;;;;;;;;;;;;5022790;28;5025;-63
2023/05/01 06:32:16;;;;;;;;;;;;;;;;;;5038639;28;5061;-63
2023/05/01 06:34:42;;;;;;;;;;;;;;;;;;5027712;28;5883;-62
2023/05/01 06:37:07;;;;;;;;;;;;;;;;;;5027489;28;5141;-63
2023/05/01 06:39:33;;;;;;;;;;;;;;;;;;5029355;28;1141;-63
2023/05/01 06:41:58;;;;;;;;;;;;;;;;;;5030075;28;4418;-63
2023/05/01 06:44:23;;;;;;;;;;;;;;;;;;5028362;28;4700;-64
2023/05/01 06:46:48;;;;;;;;;;;;;;;;;;5023843;28;4601;-64
2023/05/01 06:49:14;;;;;;;;;;;;;;;;;;5023339;28;4511;-63
2023/05/01 06:51:39;;;;;;;;;;;;;;;;;;5028348;28;1756;-64
2023/05/01 06:54:04;;;;;;;;;;;;;;;;;;5026590;28;4949;-64
2023/05/01 06:56:31;;;;;;;;;;;;;;;;;;5024206;28;4502;-63
2023/05/01 06:58:56;;;;;;;;;;;;;;;;;;5021310;28;4488;-64
2023/05/01 07:01:21;;;;;;;;;;;;;;;;;;5021569;28;4907;-63
2023/05/01 07:03:47;;;;;;;;;;;;;;;;;;5045582;28;5072;-63
2023/05/01 07:06:12;;;;;;;;;;;;;;;;;;5029240;28;1902;-64
2023/05/01 07:08:37;;;;;;;;;;;;;;;;;;5024778;28;6422;-64
2023/05/01 07:11:03;;;;;;;;;;;;;;;;;;5014456;28;4511;-63
2023/05/01 07:13:28;;;;;;;;;;;;;;;;;;5034535;28;4588;-63
2023/05/01 07:15:53;;;;;;;;;;;;;;;;;;5027890;28;5684;-63
2023/05/01 07:18:19;;;;;;;;;;;;;;;;;;5028134;28;1218;-63
2023/05/01 07:20:44;;;;;;;;;;;;;;;;;;5021878;28;4494;-63
2023/05/01 07:23:09;;;;;;;;;;;;;;;;;;5023872;28;4513;-64
2023/05/01 07:25:36;;;;;;;;;;;;;;;;;;5024023;28;5120;-64
2023/05/01 07:28:03;;;;;;;;;;;;;;;;;;5028554;28;4483;-63
2023/05/01 07:30:29;;;;;;;;;;;;;;;;;;5025973;28;1860;-63
2023/05/01 07:32:56;;;;;;;;;;;;;;;;;;5027677;28;4695;-62
2023/05/01 07:35:21;;;;;;;;;;;;;;;;;;5027954;28;4676;-62
2023/05/01 07:37:46;;;;;;;;;;;;;;;;;;5021985;28;4482;-64
2023/05/01 07:40:11;;;;;;;;;;;;;;;;;;5015640;28;4727;-64
2023/05/01 07:42:37;;;;;;;;;;;;;;;;;;5028715;28;1136;-66
2023/05/01 07:45:02;;;;;;;;;;;;;;;;;;5023581;28;4434;-64
2023/05/01 07:47:27;;;;;;;;;;;;;;;;;;5054689;28;4861;-64
2023/05/01 07:49:53;;;;;;;;;;;;;;;;;;5023196;28;4537;-64
2023/05/01 07:52:18;;;;;;;;;;;;;;;;;;5028164;28;4654;-64
2023/05/01 07:54:47;;;;;;;;;;;;;;;;;;5023230;28;4674;-63
2023/05/01 07:57:13;;;;;;;;;;;;;;;;;;5059091;28;1266;-64
2023/05/01 07:59:38;;;;;;;;;;;;;;;;;;5027898;28;4803;-64
2023/05/01 08:02:03;;;;;;;;;;;;;;;;;;5026149;28;4682;-61
2023/05/01 08:04:29;;;;;;;;;;;;;;;;;;5023301;28;5055;-57
2023/05/01 08:06:55;;;;;;;;;;;;;;;;;;5027864;28;4649;-59
2023/05/01 08:09:20;;;;;;;;;;;;;;;;;;5022559;28;6404;-58
2023/05/01 08:11:46;;;;;;;;;;;;;;;;;;5020726;28;5059;-63
2023/05/01 08:14:11;;;;;;;;;;;;;;;;;;5025608;28;4651;-60
2023/05/01 08:16:36;;;;;;;;;;;;;;;;;;5019360;28;5178;-59
2023/05/01 08:19:01;;;;;;;;;;;;;;;;;;5019981;28;4488;-58
2023/05/01 08:21:27;;;;;;;;;;;;;;;;;;5047442;28;1725;-60
2023/05/01 08:23:53;;;;;;;;;;;;;;;;;;5028805;28;4985;-65
2023/05/01 08:26:18;;;;;;;;;;;;;;;;;;5025115;28;4905;-60
2023/05/01 08:28:44;;;;;;;;;;;;;;;;;;5022630;28;4865;-65
2023/05/01 08:31:09;;;;;;;;;;;;;;;;;;5018673;28;5093;-63
2023/05/01 08:33:34;;;;;;;;;;;;;;;;;;5012297;28;1960;-64
2023/05/01 08:36:00;;;;;;;;;;;;;;;;;;5018395;28;4418;-65
2023/05/01 08:38:26;;;;;;;;;;;;;;;;;;5022090;28;4714;-66
2023/05/01 08:40:52;;;;;;;;;;;;;;;;;;5024962;28;4723;-65
2023/05/01 08:43:17;;;;;;;;;;;;;;;;;;5035900;28;5066;-66
2023/05/01 08:45:43;;;;;;;;;;;;;;;;;;5017727;28;4554;-67
2023/05/01 08:48:11;;;;;;;;;;;;;;;;;;5029484;28;1087;-67
2023/05/01 08:50:38;;;;;;;;;;;;;;;;;;5029004;28;4649;-65
2023/05/01 08:53:03;;;;;;;;;;;;;;;;;;5031238;28;4598;-66
2023/05/01 08:55:29;;;;;;;;;;;;;;;;;;5030859;28;4444;-67
2023/05/01 08:57:55;;;;;;;;;;;;;;;;;;5031070;28;4620;-66
2023/05/01 09:00:20;;;;;;;;;;;;;;;;;;5031325;28;1024;-64
2023/05/01 09:02:49;;;;;;;;;;;;;;;;;;5027086;28;4598;-65
2023/05/01 09:05:14;;;;;;;;;;;;;;;;;;5028551;28;5409;-65
2023/05/01 09:07:39;;;;;;;;;;;;;;;;;;5023372;28;4497;-66
2023/05/01 09:10:05;;;;;;;;;;;;;;;;;;5022067;28;6666;-66
2023/05/01 09:12:34;;;;;;;;;;;;;;;;;;5029679;28;1189;-66
2023/05/01 09:14:59;;;;;;;;;;;;;;;;;;5029103;28;4429;-65
2023/05/01 09:17:25;;;;;;;;;;;;;;;;;;5029490;28;4485;-65
2023/05/01 09:19:50;;;;;;;;;;;;;;;;;;5028977;28;4463;-66
2023/05/01 09:22:17;;;;;;;;;;;;;;;;;;5030770;28;4652;-66
2023/05/01 09:24:42;;;;;;;;;;;;;;;;;;5024745;28;4485;-66
2023/05/01 09:27:07;;;;;;;;;;;;;;;;;;5029483;28;1148;-66
2023/05/01 09:29:35;;;;;;;;;;;;;;;;;;5028945;28;5028;-65
2023/05/01 09:32:11;;;;;;;;;;;;;;;;;;5030197;28;4535;-65
2023/05/01 09:34:37;;;;;;;;;;;;;;;;;;5029325;28;4839;-65
2023/05/01 09:37:02;;;;;;;;;;;;;;;;;;5030312;28;4649;-66
2023/05/01 09:39:27;;;;;;;;;;;;;;;;;;5030942;28;1133;-66
2023/05/01 09:41:52;;;;;;;;;;;;;;;;;;5030388;28;4909;-62
2023/05/01 09:44:18;;;;;;;;;;;;;;;;;;5028832;28;4488;-64
2023/05/01 09:46:43;;;;;;;;;;;;;;;;;;5030239;28;5138;-64
2023/05/01 09:49:09;;;;;;;;;;;;;;;;;;5030169;28;4528;-65
2023/05/01 09:51:34;;;;;;;;;;;;;;;;;;5030410;28;1173;-65
2023/05/01 09:54:00;;;;;;;;;;;;;;;;;;5029423;28;5024;-66
2023/05/01 09:56:26;;;;;;;;;;;;;;;;;;5029976;28;4731;-66
2023/05/01 09:58:52;;;;;;;;;;;;;;;;;;5028646;28;4582;-67
2023/05/01 10:01:17;;;;;;;;;;;;;;;;;;5026249;28;5242;-67
2023/05/01 10:03:43;;;;;;;;;;;;;;;;;;5028975;28;5019;-66
2023/05/01 10:06:09;;;;;;;;;;;;;;;;;;5029320;28;1914;-65
2023/05/01 10:08:54;;;;;;;;;;;;;;;;;;5027480;28;6619;-65
2023/05/01 10:11:20;;;;;;;;;;;;;;;;;;5029689;28;4652;-65
2023/05/01 10:13:49;;;;;;;;;;;;;;;;;;5029568;28;4640;-66
2023/05/01 10:16:28;;;;;;;;;;;;;;;;;;5027875;28;4644;-66
2023/05/01 10:18:56;;;;;;;;;;;;;;;;;;5028659;28;5251;-66
2023/05/01 10:21:22;;;;;;;;;;;;;;;;;;5029948;28;1100;-65
2023/05/01 10:23:47;;;;;;;;;;;;;;;;;;5029733;28;4462;-66
2023/05/01 10:26:12;;;;;;;;;;;;;;;;;;5028428;28;4683;-65
2023/05/01 10:28:38;;;;;;;;;;;;;;;;;;5029107;28;5024;-66
2023/05/01 10:31:03;;;;;;;;;;;;;;;;;;5029616;28;4487;-66
2023/05/01 10:33:28;;;;;;;;;;;;;;;;;;5030408;28;1092;-66
2023/05/01 10:35:55;;;;;;;;;;;;;;;;;;5029022;28;4637;-66
2023/05/01 10:38:22;;;;;;;;;;;;;;;;;;5028048;28;4544;-65
2023/05/01 10:40:48;;;;;;;;;;;;;;;;;;5027894;28;4479;-66
2023/05/01 10:43:17;;;;;;;;;;;;;;;;;;5029138;28;4639;-66
2023/05/01 10:45:46;;;;;;;;;;;;;;;;;;5029188;28;4691;-65
2023/05/01 10:48:11;;;;;;;;;;;;;;;;;;5029378;28;1315;-65
2023/05/01 10:50:55;;;;;;;;;;;;;;;;;;5016182;28;4602;-66
2023/05/01 10:53:21;;;;;;;;;;;;;;;;;;5017926;28;5195;-66
2023/05/01 10:55:47;;;;;;;;;;;;;;;;;;5019899;28;4474;-65
2023/05/01 10:58:13;;;;;;;;;;;;;;;;;;5028436;28;4433;-66
2023/05/01 11:00:38;;;;;;;;;;;;;;;;;;5028705;28;1096;-67
2023/05/01 11:03:22;;;;;;;;;;;;;;;;;;5014823;28;5004;-67
2023/05/01 11:05:59;;;;;;;;;;;;;;;;;;5022739;28;4497;-67
2023/05/01 11:08:37;;;;;;;;;;;;;;;;;;5018363;28;6421;-66
2023/05/01 11:11:21;;;;;;;;;;;;;;;;;;5024121;28;4551;-68
2023/05/01 11:13:59;;;;;;;;;;;;;;;;;;5026051;28;4527;-62
2023/05/01 11:16:40;;;;;;;;;;;;;;;;;;5018020;28;5029;-66
2023/05/01 11:19:21;;;;;;;;;;;;;;;;;;5014325;28;4881;-66
2023/05/01 11:21:46;;;;;;;;;;;;;;;;;;5027543;28;5112;-67
2023/05/01 11:24:12;;;;;;;;;;;;;;;;;;5027758;28;1760;-66
2023/05/01 11:26:38;;;;;;;;;;;;;;;;;;5026970;28;4779;-67
2023/05/01 11:29:03;;;;;;;;;;;;;;;;;;5025464;28;4503;-67
2023/05/01 11:31:29;;;;;;;;;;;;;;;;;;5016260;28;4687;-67
2023/05/01 11:33:57;;;;;;;;;;;;;;;;;;5022278;28;4949;-66
2023/05/01 11:36:23;;;;;;;;;;;;;;;;;;5025095;28;1721;-67
2023/05/01 11:38:49;;;;;;;;;;;;;;;;;;5041399;28;4637;-68
2023/05/01 11:41:14;;;;;;;;;;;;;;;;;;5048309;28;5150;-71
2023/05/01 11:43:49;;;;;;;;;;;;;;;;;;5041153;28;5078;-71
2023/05/01 11:46:21;;;;;;;;;;;;;;;;;;5038398;28;4561;-69
2023/05/01 11:48:48;;;;;;;;;;;;;;;;;;5048120;28;4710;-70
2023/05/01 11:51:13;;;;;;;;;;;;;;;;;;5047347;28;1211;-70
2023/05/01 11:53:38;;;;;;;;;;;;;;;;;;5046025;28;4836;-70
2023/05/01 11:56:05;;;;;;;;;;;;;;;;;;5046122;28;4632;-69
2023/05/01 11:58:32;;;;;;;;;;;;;;;;;;5045344;28;5061;-70
2023/05/01 12:00:57;;;;;;;;;;;;;;;;;;5047864;28;4716;-70
2023/05/01 12:03:23;;;;;;;;;;;;;;;;;;5046707;28;1214;-69
2023/05/01 12:05:48;;;;;;;;;;;;;;;;;;5047318;28;4520;-70
2023/05/01 12:08:17;;;;;;;;;;;;;;;;;;5047738;28;4577;-69
2023/05/01 12:10:43;;;;;;;;;;;;;;;;;;5045725;28;4633;-68
2023/05/01 12:13:08;;;;;;;;;;;;;;;;;;5046815;28;4629;-68
2023/05/01 12:15:35;;;;;;;;;;;;;;;;;;5048590;28;1221;-67
2023/05/01 12:18:00;;;;;;;;;;;;;;;;;;5050189;28;4948;-68
2023/05/01 12:20:46;;;;;;;;;;;;;;;;;;5051277;28;4462;-68
2023/05/01 12:23:12;;;;;;;;;;;;;;;;;;5051077;28;5137;-66
2023/05/01 12:25:38;;;;;;;;;;;;;;;;;;5049906;28;4831;-65
2023/05/01 12:28:07;;;;;;;;;;;;;;;;;;5048382;28;4565;-65
2023/05/01 12:30:32;;;;;;;;;;;;;;;;;;5051587;28;1168;-65
2023/05/01 12:32:57;;;;;;;;;;;;;;;;;;5033362;28;4473;-59
2023/05/01 12:35:32;;;;;;;;;;;;;;;;;;5050868;28;4623;-58
2023/05/01 12:37:57;;;;;;;;;;;;;;;;;;5051453;28;4962;-59
2023/05/01 12:40:22;;;;;;;;;;;;;;;;;;5050885;28;4468;-61
2023/05/01 12:42:57;;;;;;;;;;;;;;;;;;5050358;28;4830;-61
2023/05/01 12:45:22;;;;;;;;;;;;;;;;;;5051743;28;1981;-60
2023/05/01 12:47:47;;;;;;;;;;;;;;;;;;5050952;28;4797;-62
2023/05/01 12:50:13;;;;;;;;;;;;;;;;;;5050891;28;5256;-63
2023/05/01 12:52:38;;;;;;;;;;;;;;;;;;5050509;28;4671;-60
2023/05/01 12:55:04;;;;;;;;;;;;;;;;;;5050034;28;5002;-59
2023/05/01 12:57:29;;;;;;;;;;;;;;;;;;5051057;28;1168;-69
2023/05/01 12:59:59;;;;;;;;;;;;;;;;;;5047861;28;4611;-59
2023/05/01 13:02:28;;;;;;;;;;;;;;;;;;5046142;28;4663;-59
2023/05/01 13:04:58;;;;;;;;;;;;;;;;;;5049507;28;5046;-61
2023/05/01 13:07:23;;;;;;;;;;;;;;;;;;5048632;28;4707;-62
2023/05/01 13:09:52;;;;;;;;;;;;;;;;;;5045828;28;6518;-61
2023/05/01 13:12:17;;;;;;;;;;;;;;;;;;5050400;28;1144;-61
2023/05/01 13:14:42;;;;;;;;;;;;;;;;;;5050551;28;4846;-62
2023/05/01 13:17:08;;;;;;;;;;;;;;;;;;5050147;28;4838;-58
2023/05/01 13:19:33;;;;;;;;;;;;;;;;;;5050116;28;4741;-62
2023/05/01 13:21:58;;;;;;;;;;;;;;;;;;5050139;28;4709;-61
2023/05/01 13:24:34;;;;;;;;;;;;;;;;;;5050262;28;1917;-60
2023/05/01 13:27:00;;;;;;;;;;;;;;;;;;5045947;28;4502;-61
2023/05/01 13:29:25;;;;;;;;;;;;;;;;;;5049848;28;4928;-58
2023/05/01 13:31:51;;;;;;;;;;;;;;;;;;5049303;28;4837;-59
2023/05/01 13:34:16;;;;;;;;;;;;;;;;;;5048927;28;4637;-58
2023/05/01 13:36:42;;;;;;;;;;;;;;;;;;5057114;28;4503;-59
2023/05/01 13:39:08;;;;;;;;;;;;;;;;;;5048198;28;1238;-58
2023/05/01 13:41:34;;;;;;;;;;;;;;;;;;5048496;28;5044;-58
2023/05/01 13:44:00;;;;;;;;;;;;;;;;;;5049730;28;4756;-60
2023/05/01 13:46:26;;;;;;;;;;;;;;;;;;5049538;28;4689;-63
2023/05/01 13:48:51;;;;;;;;;;;;;;;;;;5030012;28;4713;-57
2023/05/01 13:51:20;;;;;;;;;;;;;;;;;;5041200;28;1222;-58
2023/05/01 13:53:46;;;;;;;;;;;;;;;;;;5049848;28;4774;-58
2023/05/01 13:56:12;;;;;;;;;;;;;;;;;;5049651;28;4472;-60
2023/05/01 13:58:37;;;;;;;;;;;;;;;;;;5049168;28;4970;-58
2023/05/01 14:01:02;;;;;;;;;;;;;;;;;;5049296;28;5162;-58
2023/05/01 14:03:35;;;;;;;;;;;;;;;;;;5046001;28;1124;-58
2023/05/01 14:06:00;;;;;;;;;;;;;;;;;;5047657;28;4579;-60
2023/05/01 14:08:26;;;;;;;;;;;;;;;;;;5046696;28;6255;-60
2023/05/01 14:10:52;;;;;;;;;;;;;;;;;;5047546;28;4715;-58
2023/05/01 14:13:17;;;;;;;;;;;;;;;;;;5049397;28;4498;-58
2023/05/01 14:15:43;;;;;;;;;;;;;;;;;;5048753;28;4459;-64
2023/05/01 14:18:10;;;;;;;;;;;;;;;;;;5049480;28;1237;-58
2023/05/01 14:20:35;;;;;;;;;;;;;;;;;;5048948;28;4956;-62
2023/05/01 14:23:00;;;;;;;;;;;;;;;;;;5030955;28;4476;-61
2023/05/01 14:25:26;;;;;;;;;;;;;;;;;;5048864;28;5163;-63
2023/05/01 14:27:51;;;;;;;;;;;;;;;;;;5048646;28;4455;-61
2023/05/01 14:30:32;;;;;;;;;;;;;;;;;;5048820;28;1171;-61
2023/05/01 14:33:00;;;;;;;;;;;;;;;;;;5048338;28;4442;-58
2023/05/01 14:35:25;;;;;;;;;;;;;;;;;;5048154;28;4636;-63
2023/05/01 14:37:51;;;;;;;;;;;;;;;;;;5049058;28;5023;-59
2023/05/01 14:40:16;;;;;;;;;;;;;;;;;;5048719;28;5064;-60
2023/05/01 14:42:42;;;;;;;;;;;;;;;;;;5048524;28;4445;-63
2023/05/01 14:45:09;;;;;;;;;;;;;;;;;;5049162;28;1979;-58
2023/05/01 14:47:34;;;;;;;;;;;;;;;;;;5047352;28;4472;-61
2023/05/01 14:49:59;;;;;;;;;;;;;;;;;;5048939;28;4454;-60
2023/05/01 14:52:25;;;;;;;;;;;;;;;;;;5048597;28;5056;-61
2023/05/01 14:54:52;;;;;;;;;;;;;;;;;;5047954;28;5056;-61
2023/05/01 14:57:17;;;;;;;;;;;;;;;;;;5049013;28;1029;-59
2023/05/01 14:59:42;;;;;;;;;;;;;;;;;;5048348;28;5970;-57
2023/05/01 15:02:07;;;;;;;;;;;;;;;;;;5046083;28;4461;-59
2023/05/01 15:04:32;;;;;;;;;;;;;;;;;;5047231;28;4462;-59
2023/05/01 15:06:58;;;;;;;;;;;;;;;;;;5047908;28;4610;-58
2023/05/01 15:09:23;;;;;;;;;;;;;;;;;;5044846;28;6773;-59
2023/05/01 15:11:48;;;;;;;;;;;;;;;;;;5048093;28;5014;-62
2023/05/01 15:14:13;;;;;;;;;;;;;;;;;;5048034;28;4647;-61
2023/05/01 15:16:39;;;;;;;;;;;;;;;;;;5048273;28;4443;-58
2023/05/01 15:19:04;;;;;;;;;;;;;;;;;;5048314;28;5082;-60
2023/05/01 15:21:30;;;;;;;;;;;;;;;;;;5048233;28;1381;-59
2023/05/01 15:23:56;;;;;;;;;;;;;;;;;;5047535;28;4437;-61
2023/05/01 15:26:21;;;;;;;;;;;;;;;;;;5046561;28;4686;-65
2023/05/01 15:28:46;;;;;;;;;;;;;;;;;;5034118;28;5053;-60
2023/05/01 15:31:12;;;;;;;;;;;;;;;;;;5042036;28;4605;-61
2023/05/01 15:33:37;;;;;;;;;;;;;;;;;;5046906;28;1172;-60
2023/05/01 15:36:02;;;;;;;;;;;;;;;;;;5047238;28;5071;-60
2023/05/01 15:38:29;;;;;;;;;;;;;;;;;;5043987;28;4866;-58
2023/05/01 15:40:55;;;;;;;;;;;;;;;;;;5043302;28;4548;-59
2023/05/01 15:43:22;;;;;;;;;;;;;;;;;;5044806;28;4566;-60
2023/05/01 15:45:47;;;;;;;;;;;;;;;;;;5047819;28;5029;-61
2023/05/01 15:48:12;;;;;;;;;;;;;;;;;;5048059;28;1123;-62
2023/05/01 15:50:37;;;;;;;;;;;;;;;;;;5043073;28;4511;-59
2023/05/01 15:53:03;;;;;;;;;;;;;;;;;;5039287;28;5016;-57
2023/05/01 15:55:28;;;;;;;;;;;;;;;;;;5042002;28;4971;-58
2023/05/01 15:57:53;;;;;;;;;;;;;;;;;;5049513;28;4717;-57
2023/05/01 16:00:20;;;;;;;;;;;;;;;;;;5051668;28;1246;-57
2023/05/01 16:02:46;;;;;;;;;;;;;;;;;;5036881;28;4957;-60
2023/05/01 16:05:11;;;;;;;;;;;;;;;;;;5041185;28;4776;-59
2023/05/01 16:07:37;;;;;;;;;;;;;;;;;;5049845;28;4661;-63
2023/05/01 16:10:03;;;;;;;;;;;;;;;;;;5051514;28;6496;-60
2023/05/01 16:12:28;;;;;;;;;;;;;;;;;;5044253;28;1797;-61
2023/05/01 16:14:53;;;;;;;;;;;;;;;;;;5050464;28;4453;-59
2023/05/01 16:17:19;;;;;;;;;;;;;;;;;;5051514;28;5562;-59
2023/05/01 16:19:45;;;;;;;;;;;;;;;;;;5051389;28;5148;-59
2023/05/01 16:22:10;;;;;;;;;;;;;;;;;;5049649;28;4810;-62
2023/05/01 16:24:35;;;;;;;;;;;;;;;;;;5050242;28;1981;-62
2023/05/01 16:27:01;;;;;;;;;;;;;;;;;;5049340;28;4684;-60
2023/05/01 16:29:26;;;;;;;;;;;;;;;;;;5044701;28;4449;-65
2023/05/01 16:31:52;;;;;;;;;;;;;;;;;;5050008;28;4453;-65
2023/05/01 16:34:18;;;;;;;;;;;;;;;;;;5050004;28;4454;-65
2023/05/01 16:36:45;;;;;;;;;;;;;;;;;;5059566;28;4672;-70
2023/05/01 16:39:11;;;;;;;;;;;;;;;;;;5049949;28;1400;-69
2023/05/01 16:41:41;;;;;;;;;;;;;;;;;;5050829;28;4863;-65
2023/05/01 16:44:06;;;;;;;;;;;;;;;;;;5050858;28;5157;-66
2023/05/01 16:46:32;;;;;;;;;;;;;;;;;;5032706;28;4760;-66
2023/05/01 16:48:57;;;;;;;;;;;;;;;;;;5050448;28;4798;-66
2023/05/01 16:51:22;;;;;;;;;;;;;;;;;;5051290;28;1222;-65
2023/05/01 16:53:48;;;;;;;;;;;;;;;;;;5048884;28;4825;-66
2023/05/01 16:56:13;;;;;;;;;;;;;;;;;;5040981;28;4543;-67
2023/05/01 16:58:38;;;;;;;;;;;;;;;;;;5050076;28;4451;-65